createdAt,value
2023-05-11T00:00:01.014Z,15.22
2023-05-11T00:02:27.309Z,15.22
2023-05-11T00:04:53.919Z,15.24
2023-05-11T00:07:20.152Z,15.29
2023-05-11T00:09:46.360Z,15.26
2023-05-11T00:12:12.579Z,15.24
2023-05-11T00:14:38.805Z,15.23
2023-05-11T00:17:05.045Z,15.12
2023-05-11T00:19:31.306Z,15.14
2023-05-11T00:21:57.848Z,15.09
2023-05-11T00:24:24.235Z,15.11
2023-05-11T00:26:50.481Z,15.12
2023-05-11T00:29:16.699Z,15.12
2023-05-11T00:31:42.977Z,15.12
2023-05-11T00:34:09.210Z,15.11
2023-05-11T00:36:35.527Z,15.12
2023-05-11T00:39:01.843Z,15.16
2023-05-11T00:41:28.086Z,15.14
2023-05-11T00:43:54.325Z,15.14
2023-05-11T00:46:20.577Z,15.11
2023-05-11T00:48:46.848Z,15.10
2023-05-11T00:51:13.075Z,15.06
2023-05-11T00:53:39.315Z,15.04
2023-05-11T00:56:05.593Z,15.04
2023-05-11T00:58:31.833Z,15.05
2023-05-11T01:00:58.114Z,15.06
2023-05-11T01:03:24.408Z,15.03
2023-05-11T01:06:09.552Z,15.01
2023-05-11T01:08:40.083Z,14.98
2023-05-11T01:11:06.259Z,14.90
2023-05-11T01:13:33.890Z,14.90
2023-05-11T01:16:00.752Z,14.92
2023-05-11T01:18:30.876Z,14.90
2023-05-11T01:20:58.548Z,14.97
2023-05-11T01:23:29.831Z,14.93
2023-05-11T01:26:16.288Z,14.92
2023-05-11T01:28:49.183Z,14.91
2023-05-11T01:31:15.474Z,14.93
2023-05-11T01:33:47.412Z,14.91
2023-05-11T01:36:13.633Z,14.89
2023-05-11T01:38:40.765Z,14.92
2023-05-11T01:41:12.073Z,14.95
2023-05-11T01:43:38.289Z,14.96
2023-05-11T01:46:04.604Z,14.95
2023-05-11T01:48:31.029Z,14.94
2023-05-11T01:50:59.095Z,14.91
2023-05-11T01:53:25.311Z,14.87
2023-05-11T01:55:51.533Z,14.84
2023-05-11T01:58:17.781Z,14.82
2023-05-11T02:00:44.029Z,14.81
2023-05-11T02:03:10.310Z,14.78
2023-05-11T02:05:36.671Z,14.71
2023-05-11T02:08:03.107Z,14.71
2023-05-11T02:10:29.353Z,14.70
2023-05-11T02:12:55.612Z,14.72
2023-05-11T02:15:21.858Z,14.65
2023-05-11T02:17:48.151Z,14.36
2023-05-11T02:20:14.460Z,14.15
2023-05-11T02:22:40.785Z,13.98
2023-05-11T02:25:07.771Z,14.09
2023-05-11T02:27:33.974Z,14.23
2023-05-11T02:30:00.240Z,14.33
2023-05-11T02:32:26.495Z,14.07
2023-05-11T02:34:54.620Z,14.20
2023-05-11T02:37:21.788Z,14.27
2023-05-11T02:39:48.217Z,14.33
2023-05-11T02:42:15.207Z,14.08
2023-05-11T02:44:44.103Z,14.01
2023-05-11T02:47:10.342Z,14.17
2023-05-11T02:49:36.555Z,14.15
2023-05-11T02:52:02.890Z,14.20
2023-05-11T02:54:29.099Z,14.24
2023-05-11T02:56:55.323Z,14.25
2023-05-11T02:59:21.950Z,14.28
2023-05-11T03:01:48.270Z,14.28
2023-05-11T03:04:14.592Z,14.21
2023-05-11T03:06:40.810Z,14.13
2023-05-11T03:09:09.339Z,13.94
2023-05-11T03:11:36.415Z,14.05
2023-05-11T03:14:02.624Z,14.11
2023-05-11T03:16:28.863Z,14.08
2023-05-11T03:18:55.132Z,14.09
2023-05-11T03:21:21.560Z,13.86
2023-05-11T03:23:47.801Z,13.96
2023-05-11T03:26:14.025Z,14.08
2023-05-11T03:28:40.472Z,14.14
2023-05-11T03:31:06.701Z,14.14
2023-05-11T03:33:32.902Z,14.11
2023-05-11T03:35:59.118Z,14.11
2023-05-11T03:38:25.322Z,14.16
2023-05-11T03:40:52.005Z,14.21
2023-05-11T03:43:18.219Z,14.29
2023-05-11T03:45:44.505Z,14.27
2023-05-11T03:48:10.807Z,14.20
2023-05-11T03:50:37.883Z,14.27
2023-05-11T03:53:04.347Z,14.27
2023-05-11T03:55:30.559Z,14.30
2023-05-11T03:57:56.765Z,14.34
2023-05-11T04:00:22.971Z,14.35
2023-05-11T04:02:49.254Z,14.36
2023-05-11T04:05:15.510Z,14.11
2023-05-11T04:07:41.747Z,14.25
2023-05-11T04:10:08.112Z,14.39
2023-05-11T04:12:34.473Z,14.45
2023-05-11T04:15:00.825Z,14.46
2023-05-11T04:17:27.111Z,14.45
2023-05-11T04:19:53.313Z,14.28
2023-05-11T04:22:19.517Z,14.32
2023-05-11T04:24:45.721Z,14.38
2023-05-11T04:27:11.926Z,14.36
2023-05-11T04:29:38.133Z,14.40
2023-05-11T04:32:04.517Z,14.48
2023-05-11T04:34:30.734Z,14.53
2023-05-11T04:36:56.963Z,14.58
2023-05-11T04:39:23.156Z,14.64
2023-05-11T04:41:49.371Z,14.69
2023-05-11T04:44:15.581Z,14.73
2023-05-11T04:46:41.839Z,14.72
2023-05-11T04:49:08.089Z,14.70
2023-05-11T04:51:34.314Z,14.45
2023-05-11T04:54:00.527Z,14.04
2023-05-11T04:56:26.741Z,14.13
2023-05-11T04:58:52.947Z,14.41
2023-05-11T05:01:19.193Z,14.59
2023-05-11T05:03:47.735Z,14.69
2023-05-11T05:06:13.959Z,14.73
2023-05-11T05:08:40.163Z,14.79
2023-05-11T05:11:06.395Z,14.84
2023-05-11T05:13:32.595Z,14.89
2023-05-11T05:15:58.808Z,14.90
2023-05-11T05:18:25.038Z,14.72
2023-05-11T05:20:51.280Z,14.56
2023-05-11T05:23:17.494Z,14.57
2023-05-11T05:25:43.708Z,14.72
2023-05-11T05:28:09.924Z,14.72
2023-05-11T05:30:36.198Z,14.59
2023-05-11T05:33:02.760Z,14.64
2023-05-11T05:35:29.019Z,14.67
2023-05-11T05:37:55.214Z,14.83
2023-05-11T05:40:21.617Z,15.09
2023-05-11T05:42:47.897Z,15.26
2023-05-11T05:45:14.926Z,15.38
2023-05-11T05:47:41.344Z,15.35
2023-05-11T05:50:08.344Z,15.42
2023-05-11T05:52:34.553Z,15.47
2023-05-11T05:55:00.773Z,15.49
2023-05-11T05:57:26.989Z,15.52
2023-05-11T05:59:53.209Z,15.51
2023-05-11T06:02:19.453Z,15.62
2023-05-11T06:04:45.753Z,15.53
2023-05-11T06:07:11.964Z,15.58
2023-05-11T06:09:39.295Z,15.76
2023-05-11T06:12:05.777Z,15.81
2023-05-11T06:14:31.988Z,15.92
2023-05-11T06:16:58.195Z,16.15
2023-05-11T06:19:24.407Z,15.98
2023-05-11T06:21:50.624Z,16.21
2023-05-11T06:24:16.827Z,16.34
2023-05-11T06:26:43.051Z,16.57
2023-05-11T06:29:09.263Z,16.30
2023-05-11T06:31:35.532Z,16.94
2023-05-11T06:34:01.763Z,17.69
2023-05-11T06:36:27.985Z,17.48
2023-05-11T06:38:54.232Z,16.99
2023-05-11T06:41:20.485Z,17.36
2023-05-11T06:43:46.708Z,17.19
2023-05-11T06:46:12.974Z,17.66
2023-05-11T06:48:39.274Z,17.68
2023-05-11T06:51:05.500Z,17.52
2023-05-11T06:53:31.724Z,17.60
2023-05-11T06:55:57.941Z,17.42
2023-05-11T06:58:24.156Z,18.06
2023-05-11T07:00:50.422Z,18.72
2023-05-11T07:03:16.692Z,18.97
2023-05-11T07:05:42.979Z,19.35
2023-05-11T07:08:09.194Z,19.01
2023-05-11T07:10:35.670Z,19.03
2023-05-11T07:13:01.876Z,19.02
2023-05-11T07:15:28.147Z,18.33
2023-05-11T07:17:54.446Z,18.24
2023-05-11T07:20:21.084Z,18.23
2023-05-11T07:22:47.486Z,18.87
2023-05-11T07:25:13.728Z,19.27
2023-05-11T07:27:39.932Z,19.79
2023-05-11T07:30:06.415Z,19.90
2023-05-11T07:32:32.687Z,20.69
2023-05-11T07:34:58.951Z,20.48
2023-05-11T07:37:25.180Z,20.85
2023-05-11T07:39:51.421Z,20.55
2023-05-11T07:42:17.656Z,20.47
2023-05-11T07:44:43.887Z,20.84
2023-05-11T07:47:10.116Z,20.26
2023-05-11T07:49:43.375Z,20.42
2023-05-11T07:52:10.575Z,20.88
2023-05-11T07:54:36.845Z,20.43
2023-05-11T07:57:03.090Z,20.48
2023-05-11T07:59:29.340Z,20.70
2023-05-11T08:01:55.590Z,20.31
2023-05-11T08:04:21.841Z,20.24
2023-05-11T08:06:48.068Z,21.06
2023-05-11T08:09:14.655Z,20.92
2023-05-11T08:11:40.937Z,20.90
2023-05-11T08:14:07.210Z,20.71
2023-05-11T08:16:33.487Z,20.68
2023-05-11T08:18:59.775Z,21.05
2023-05-11T08:21:26.066Z,21.73
2023-05-11T08:23:52.272Z,21.98
2023-05-11T08:26:18.487Z,22.10
2023-05-11T08:28:44.679Z,22.58
2023-05-11T08:31:10.962Z,22.19
2023-05-11T08:33:38.694Z,22.20
2023-05-11T08:36:05.802Z,22.19
2023-05-11T08:38:32.020Z,21.97
2023-05-11T08:40:58.246Z,22.29
2023-05-11T08:43:24.451Z,21.84
2023-05-11T08:45:50.672Z,22.36
2023-05-11T08:48:16.883Z,21.88
2023-05-11T08:50:46.352Z,22.49
2023-05-11T08:53:12.715Z,23.14
2023-05-11T08:55:38.997Z,23.58
2023-05-11T08:58:05.211Z,23.21
2023-05-11T09:00:31.432Z,23.23
2023-05-11T09:02:57.678Z,22.94
2023-05-11T09:05:24.017Z,22.77
2023-05-11T09:07:50.359Z,23.17
2023-05-11T09:10:16.574Z,23.54
2023-05-11T09:12:42.836Z,22.39
2023-05-11T09:15:09.268Z,23.16
2023-05-11T09:17:35.528Z,22.85
2023-05-11T09:20:02.565Z,22.60
2023-05-11T09:22:31.395Z,23.08
2023-05-11T09:24:59.524Z,22.74
2023-05-11T09:27:25.750Z,23.06
2023-05-11T09:29:53.014Z,22.96
2023-05-11T09:32:19.242Z,24.11
2023-05-11T09:34:46.115Z,23.93
2023-05-11T09:37:15.916Z,24.30
2023-05-11T09:39:59.176Z,24.33
2023-05-11T09:42:29.186Z,23.36
2023-05-11T09:44:55.384Z,23.68
2023-05-11T09:47:21.601Z,22.73
2023-05-11T09:49:47.915Z,22.80
2023-05-11T09:52:15.062Z,22.31
2023-05-11T09:54:44.755Z,22.43
2023-05-11T09:57:23.847Z,23.20
2023-05-11T09:59:50.058Z,22.21
2023-05-11T10:02:20.369Z,22.53
2023-05-11T10:04:47.059Z,21.74
2023-05-11T10:07:22.960Z,22.19
2023-05-11T10:09:49.159Z,23.26
2023-05-11T10:12:15.368Z,23.19
2023-05-11T10:14:41.574Z,23.82
2023-05-11T10:17:07.803Z,24.56
2023-05-11T10:19:34.013Z,24.38
2023-05-11T10:22:00.263Z,24.30
2023-05-11T10:24:26.488Z,24.53
2023-05-11T10:26:52.702Z,24.45
2023-05-11T10:29:18.912Z,24.67
2023-05-11T10:31:45.121Z,25.00
2023-05-11T10:34:11.328Z,25.80
2023-05-11T10:36:37.543Z,25.86
2023-05-11T10:39:03.776Z,24.84
2023-05-11T10:41:33.888Z,25.07
2023-05-11T10:44:18.931Z,24.64
2023-05-11T10:47:03.644Z,24.38
2023-05-11T10:49:39.900Z,23.82
2023-05-11T10:52:24.867Z,23.47
2023-05-11T10:55:02.024Z,22.65
2023-05-11T10:57:28.191Z,23.16
2023-05-11T11:00:13.314Z,24.13
2023-05-11T11:02:39.609Z,23.36
2023-05-11T11:05:06.002Z,23.44
2023-05-11T11:07:32.237Z,24.15
2023-05-11T11:09:59.155Z,24.48
2023-05-11T11:12:25.787Z,24.55
2023-05-11T11:14:55.544Z,25.08
2023-05-11T11:17:22.271Z,25.71
2023-05-11T11:19:48.499Z,24.96
2023-05-11T11:22:33.591Z,24.40
2023-05-11T11:24:59.801Z,23.19
2023-05-11T11:27:41.211Z,22.69
2023-05-11T11:30:19.514Z,23.11
2023-05-11T11:32:49.188Z,23.44
2023-05-11T11:35:33.983Z,23.46
2023-05-11T11:38:00.474Z,22.65
2023-05-11T11:40:46.911Z,22.02
2023-05-11T11:43:16.669Z,21.90
2023-05-11T11:45:52.068Z,22.23
2023-05-11T11:48:22.167Z,23.11
2023-05-11T11:50:48.592Z,22.82
2023-05-11T11:53:33.692Z,22.36
2023-05-11T11:55:59.899Z,21.98
2023-05-11T11:58:41.216Z,21.89
2023-05-11T12:01:07.770Z,21.87
2023-05-11T12:03:35.359Z,22.06
2023-05-11T12:06:01.732Z,22.07
2023-05-11T12:08:29.018Z,22.05
2023-05-11T12:10:55.230Z,22.00
2023-05-11T12:13:21.467Z,21.82
2023-05-11T12:15:47.684Z,21.71
2023-05-11T12:18:20.492Z,21.56
2023-05-11T12:20:46.755Z,21.88
2023-05-11T12:23:13.037Z,22.81
2023-05-11T12:25:39.238Z,22.88
2023-05-11T12:28:05.448Z,23.18
2023-05-11T12:30:32.114Z,22.38
2023-05-11T12:32:58.357Z,22.48
2023-05-11T12:35:34.112Z,23.07
2023-05-11T12:38:00.796Z,23.52
2023-05-11T12:40:27.028Z,23.44
2023-05-11T12:42:53.713Z,23.13
2023-05-11T12:45:20.235Z,22.69
2023-05-11T12:47:47.321Z,22.46
2023-05-11T12:50:13.570Z,22.20
2023-05-11T12:52:39.784Z,22.00
2023-05-11T12:55:06.203Z,21.82
2023-05-11T12:57:32.414Z,21.89
2023-05-11T13:00:08.529Z,22.78
2023-05-11T13:02:34.831Z,23.85
2023-05-11T13:05:09.678Z,23.79
2023-05-11T13:07:35.913Z,22.49
2023-05-11T13:10:02.117Z,22.15
2023-05-11T13:12:30.988Z,22.14
2023-05-11T13:15:07.677Z,22.84
2023-05-11T13:17:34.574Z,23.82
2023-05-11T13:20:19.726Z,24.57
2023-05-11T13:22:46.402Z,24.50
2023-05-11T13:25:13.697Z,24.79
2023-05-11T13:27:39.910Z,24.01
2023-05-11T13:30:06.433Z,23.94
2023-05-11T13:32:32.768Z,23.35
2023-05-11T13:35:02.120Z,22.82
2023-05-11T13:37:28.321Z,22.68
2023-05-11T13:39:54.541Z,22.63
2023-05-11T13:42:20.750Z,22.22
2023-05-11T13:44:46.965Z,22.11
2023-05-11T13:47:13.223Z,21.80
2023-05-11T13:49:39.459Z,21.81
2023-05-11T13:52:05.757Z,21.88
2023-05-11T13:54:31.979Z,21.98
2023-05-11T13:56:58.244Z,22.20
2023-05-11T13:59:24.465Z,22.06
2023-05-11T14:01:50.785Z,22.10
2023-05-11T14:04:17.175Z,22.11
2023-05-11T14:06:43.445Z,22.34
2023-05-11T14:09:09.641Z,22.68
2023-05-11T14:11:37.963Z,22.86
2023-05-11T14:14:05.517Z,22.83
2023-05-11T14:16:31.727Z,22.68
2023-05-11T14:18:58.062Z,22.34
2023-05-11T14:21:24.346Z,22.36
2023-05-11T14:24:06.666Z,22.31
2023-05-11T14:26:36.961Z,22.37
2023-05-11T14:29:03.167Z,22.27
2023-05-11T14:31:30.771Z,22.04
2023-05-11T14:33:57.136Z,21.94
2023-05-11T14:36:23.423Z,22.13
2023-05-11T14:38:49.631Z,22.31
2023-05-11T14:41:15.882Z,22.63
2023-05-11T14:43:42.145Z,22.58
2023-05-11T14:46:08.372Z,22.39
2023-05-11T14:48:34.594Z,22.05
2023-05-11T14:51:00.806Z,21.97
2023-05-11T14:53:27.019Z,22.03
2023-05-11T14:55:53.252Z,21.95
2023-05-11T14:58:19.472Z,22.02
2023-05-11T15:00:45.683Z,21.94
2023-05-11T15:03:11.934Z,21.94
2023-05-11T15:05:38.189Z,21.71
2023-05-11T15:08:04.533Z,21.76
2023-05-11T15:10:30.859Z,21.67
2023-05-11T15:12:57.104Z,21.84
2023-05-11T15:15:23.319Z,21.85
2023-05-11T15:17:49.619Z,21.58
2023-05-11T15:20:16.328Z,21.22
2023-05-11T15:22:42.550Z,21.01
2023-05-11T15:25:09.024Z,21.39
2023-05-11T15:27:35.273Z,21.47
2023-05-11T15:30:01.564Z,21.65
2023-05-11T15:32:27.820Z,21.56
2023-05-11T15:34:59.668Z,21.50
2023-05-11T15:37:26.253Z,21.59
2023-05-11T15:39:52.690Z,21.44
2023-05-11T15:42:18.904Z,21.29
2023-05-11T15:44:45.119Z,21.48
2023-05-11T15:47:11.334Z,21.64
2023-05-11T15:49:37.535Z,21.80
2023-05-11T15:52:03.952Z,21.94
2023-05-11T15:54:30.177Z,22.19
2023-05-11T15:56:56.400Z,22.33
2023-05-11T15:59:22.677Z,22.22
2023-05-11T16:01:48.933Z,21.99
2023-05-11T16:04:15.160Z,21.90
2023-05-11T16:06:41.385Z,21.94
2023-05-11T16:09:07.827Z,21.76
2023-05-11T16:11:34.051Z,21.56
2023-05-11T16:14:00.267Z,21.23
2023-05-11T16:16:26.730Z,21.17
2023-05-11T16:18:52.972Z,21.21
2023-05-11T16:21:19.246Z,20.97
2023-05-11T16:23:45.538Z,21.00
2023-05-11T16:26:11.947Z,21.13
2023-05-11T16:28:38.169Z,21.16
2023-05-11T16:31:04.402Z,21.20
2023-05-11T16:33:30.610Z,21.34
2023-05-11T16:35:56.833Z,21.36
2023-05-11T16:38:23.044Z,21.25
2023-05-11T16:40:49.515Z,21.04
2023-05-11T16:43:15.854Z,21.04
2023-05-11T16:45:45.156Z,21.01
2023-05-11T16:48:11.376Z,20.87
2023-05-11T16:50:37.601Z,20.86
2023-05-11T16:53:04.256Z,20.85
2023-05-11T16:55:30.624Z,20.73
2023-05-11T16:57:56.834Z,20.72
2023-05-11T17:00:24.744Z,20.62
2023-05-11T17:02:51.072Z,20.54
2023-05-11T17:05:17.371Z,20.55
2023-05-11T17:07:43.636Z,20.47
2023-05-11T17:10:10.229Z,20.48
2023-05-11T17:12:36.475Z,20.24
2023-05-11T17:15:02.715Z,20.31
2023-05-11T17:17:28.948Z,20.22
2023-05-11T17:19:55.193Z,20.10
2023-05-11T17:22:21.404Z,20.21
2023-05-11T17:24:47.641Z,20.20
2023-05-11T17:27:13.872Z,20.21
2023-05-11T17:29:42.341Z,20.11
2023-05-11T17:32:08.632Z,20.04
2023-05-11T17:34:34.948Z,19.95
2023-05-11T17:37:01.224Z,19.98
2023-05-11T17:39:27.437Z,19.88
2023-05-11T17:41:53.664Z,19.84
2023-05-11T17:44:19.861Z,19.71
2023-05-11T17:46:46.084Z,19.74
2023-05-11T17:49:12.279Z,19.63
2023-05-11T17:51:38.490Z,19.49
2023-05-11T17:54:04.694Z,19.48
2023-05-11T17:56:30.898Z,19.49
2023-05-11T17:58:57.128Z,19.45
2023-05-11T18:01:23.390Z,19.24
2023-05-11T18:03:49.884Z,19.28
2023-05-11T18:06:16.236Z,19.01
2023-05-11T18:08:42.454Z,19.06
2023-05-11T18:11:08.659Z,18.89
2023-05-11T18:13:35.186Z,18.93
2023-05-11T18:16:01.412Z,18.83
2023-05-11T18:18:27.702Z,18.54
2023-05-11T18:20:53.988Z,18.78
2023-05-11T18:23:20.212Z,18.83
2023-05-11T18:25:46.421Z,18.54
2023-05-11T18:28:12.643Z,18.28
2023-05-11T18:30:38.854Z,18.23
2023-05-11T18:33:05.362Z,18.12
2023-05-11T18:35:31.628Z,18.19
2023-05-11T18:37:57.842Z,18.26
2023-05-11T18:40:24.075Z,18.34
2023-05-11T18:42:52.205Z,18.38
2023-05-11T18:45:18.441Z,18.39
2023-05-11T18:47:44.749Z,18.13
2023-05-11T18:50:11.064Z,17.72
2023-05-11T18:52:37.302Z,17.61
2023-05-11T18:55:03.534Z,17.65
2023-05-11T18:57:29.743Z,17.86
2023-05-11T18:59:55.974Z,17.70
2023-05-11T19:02:22.320Z,17.85
2023-05-11T19:04:48.581Z,17.84
2023-05-11T19:07:15.503Z,17.84
2023-05-11T19:09:42.697Z,17.75
2023-05-11T19:12:08.977Z,17.49
2023-05-11T19:14:35.176Z,17.68
2023-05-11T19:17:02.031Z,17.54
2023-05-11T19:19:28.282Z,17.54
2023-05-11T19:21:54.496Z,17.34
2023-05-11T19:24:20.713Z,17.31
2023-05-11T19:26:55.430Z,17.34
2023-05-11T19:29:29.083Z,17.10
2023-05-11T19:31:55.434Z,16.92
2023-05-11T19:34:21.673Z,17.05
2023-05-11T19:36:47.901Z,17.00
2023-05-11T19:39:14.129Z,16.83
2023-05-11T19:41:40.364Z,16.89
2023-05-11T19:44:06.578Z,16.70
2023-05-11T19:46:32.870Z,16.68
2023-05-11T19:48:59.106Z,16.75
2023-05-11T19:51:25.330Z,16.53
2023-05-11T19:53:51.540Z,16.54
2023-05-11T19:56:17.751Z,16.50
2023-05-11T19:58:43.952Z,16.56
2023-05-11T20:01:10.196Z,16.48
2023-05-11T20:03:36.497Z,16.42
2023-05-11T20:06:02.761Z,16.45
2023-05-11T20:08:28.953Z,16.45
2023-05-11T20:10:55.155Z,16.37
2023-05-11T20:13:21.910Z,16.22
2023-05-11T20:15:48.246Z,16.20
2023-05-11T20:18:14.474Z,16.43
2023-05-11T20:20:40.726Z,15.98
2023-05-11T20:23:06.935Z,16.47
2023-05-11T20:25:33.184Z,16.60
2023-05-11T20:27:59.392Z,16.54
2023-05-11T20:30:25.635Z,16.69
2023-05-11T20:35:21.084Z,16.14
2023-05-11T20:37:47.386Z,15.88
2023-05-11T20:40:13.658Z,16.07
2023-05-11T20:42:39.886Z,16.07
2023-05-11T20:45:06.821Z,16.09
2023-05-11T20:47:33.476Z,16.10
2023-05-11T20:49:59.729Z,16.19
2023-05-11T20:52:25.957Z,16.50
2023-05-11T20:54:52.167Z,16.23
2023-05-11T20:57:18.448Z,16.21
2023-05-11T21:02:13.828Z,16.62
2023-05-11T21:04:40.346Z,16.49
2023-05-11T21:07:06.578Z,16.54
2023-05-11T21:09:32.784Z,16.61
2023-05-11T21:11:59.010Z,16.61
2023-05-11T21:14:25.216Z,16.51
2023-05-11T21:16:51.465Z,16.34
2023-05-11T21:19:17.708Z,15.92
2023-05-11T21:21:43.937Z,15.54
2023-05-11T21:24:10.153Z,15.28
2023-05-11T21:26:36.386Z,15.89
2023-05-11T21:29:02.599Z,15.87
2023-05-11T21:31:28.983Z,16.13
2023-05-11T21:33:55.266Z,15.69
2023-05-11T21:36:21.494Z,15.95
2023-05-11T21:38:47.713Z,15.80
2023-05-11T21:41:13.929Z,15.76
2023-05-11T21:43:40.190Z,15.83
2023-05-11T21:46:06.440Z,15.87
2023-05-11T21:48:32.716Z,15.98
2023-05-11T21:50:58.941Z,15.97
2023-05-11T21:53:25.150Z,15.95
2023-05-11T21:55:51.376Z,15.61
2023-05-11T21:58:17.610Z,15.95
2023-05-11T22:00:43.849Z,15.64
2023-05-11T22:03:10.139Z,15.57
2023-05-11T22:05:36.374Z,15.93
2023-05-11T22:08:13.261Z,15.92
2023-05-11T22:10:40.853Z,15.72
2023-05-11T22:13:07.057Z,15.95
2023-05-11T22:15:33.283Z,15.93
2023-05-11T22:17:59.544Z,15.50
2023-05-11T22:20:25.791Z,15.64
2023-05-11T22:22:52.002Z,15.27
2023-05-11T22:25:18.284Z,15.59
2023-05-11T22:27:44.483Z,15.01
2023-05-11T22:30:10.928Z,14.80
2023-05-11T22:32:37.176Z,15.02
2023-05-11T22:35:03.644Z,14.95
2023-05-11T22:37:30.485Z,15.13
2023-05-11T22:39:56.712Z,15.54
2023-05-11T22:42:22.931Z,15.67
2023-05-11T22:44:49.154Z,15.54
2023-05-11T22:47:15.372Z,15.52
2023-05-11T22:49:41.604Z,15.40
2023-05-11T22:52:07.816Z,15.28
2023-05-11T22:54:34.028Z,15.51
2023-05-11T22:57:01.194Z,15.37
2023-05-11T22:59:27.417Z,15.54
2023-05-11T23:01:53.649Z,15.52
2023-05-11T23:04:19.882Z,15.26
2023-05-11T23:06:46.087Z,15.42
2023-05-11T23:09:12.290Z,15.03
2023-05-11T23:11:38.521Z,15.03
2023-05-11T23:14:04.732Z,15.23
2023-05-11T23:16:30.942Z,15.10
2023-05-11T23:18:57.209Z,15.04
2023-05-11T23:21:23.497Z,14.80
2023-05-11T23:23:49.714Z,14.95
2023-05-11T23:26:15.937Z,14.74
2023-05-11T23:28:42.166Z,14.82
2023-05-11T23:31:08.424Z,14.78
2023-05-11T23:33:34.661Z,14.46
2023-05-11T23:36:00.880Z,14.35
2023-05-11T23:38:27.083Z,14.65
2023-05-11T23:40:53.620Z,14.30
2023-05-11T23:43:19.833Z,14.30
2023-05-11T23:45:46.048Z,14.38
2023-05-11T23:48:12.263Z,14.31
2023-05-11T23:50:38.517Z,14.32
2023-05-11T23:53:04.719Z,14.32
2023-05-11T23:55:30.938Z,14.36
2023-05-11T23:57:58.788Z,14.42
